< < Back
Terminal Aerodrome Forecast


Current Version              Previous Versions:   1  2  3  4  5  6  7  8  9  

Terminal Aerodrome Forecast

743
FTUS42 KCHS 310906 CCA
TAFSAV
TAF COR
KSAV 310906Z 3109/0106 00000KT 3/4SM BR VV002
      TEMPO 3109/3111 1/4SM FG
     FM311300 26006KT P6SM FEW040
     FM311900 24013G19KT P6SM FEW050 SCT120 BKN200
     FM010000 22007KT P6SM FEW060 BKN120=



Latest METAR

836
SAUS80 KWBC 311800 RRB
MTRSAV
METAR KSAV 311753Z 30009G17KT 270V330 10SM FEW045 SCT250 26/08 A3003 RMK
AO2 SLP168 T02560078 10261 20100 58024


USA.gov is the U.S. government's official web portal to all federal, state and local government web resources and services.